sensor_id;sensor_type;location;lat;lon;timestamp;P1;durP1;ratioP1;P2;durP2;ratioP2
27365;SDS011;14837;57.148;-2.144;2023-12-20T00:00:40;0.93;;;0.55;;
27365;SDS011;14837;57.148;-2.144;2023-12-20T00:03:06;0.60;;;0.60;;
27365;SDS011;14837;57.148;-2.144;2023-12-20T00:05:33;1.42;;;0.85;;
27365;SDS011;14837;57.148;-2.144;2023-12-20T00:08:00;1.40;;;0.70;;
27365;SDS011;14837;57.148;-2.144;2023-12-20T00:10:27;1.83;;;0.60;;
27365;SDS011;14837;57.148;-2.144;2023-12-20T00:12:54;4.00;;;1.25;;
27365;SDS011;14837;57.148;-2.144;2023-12-20T00:15:20;2.33;;;0.70;;
27365;SDS011;14837;57.148;-2.144;2023-12-20T00:17:47;1.38;;;0.85;;
27365;SDS011;14837;57.148;-2.144;2023-12-20T00:20:14;1.63;;;0.90;;
27365;SDS011;14837;57.148;-2.144;2023-12-20T00:22:40;1.40;;;1.13;;
27365;SDS011;14837;57.148;-2.144;2023-12-20T00:25:07;1.90;;;1.70;;
27365;SDS011;14837;57.148;-2.144;2023-12-20T00:27:34;1.45;;;1.25;;
27365;SDS011;14837;57.148;-2.144;2023-12-20T00:30:00;1.27;;;0.90;;
27365;SDS011;14837;57.148;-2.144;2023-12-20T00:32:27;1.55;;;1.10;;
27365;SDS011;14837;57.148;-2.144;2023-12-20T00:34:54;2.17;;;1.13;;
27365;SDS011;14837;57.148;-2.144;2023-12-20T00:37:21;1.20;;;0.60;;
27365;SDS011;14837;57.148;-2.144;2023-12-20T00:39:47;2.22;;;0.75;;
27365;SDS011;14837;57.148;-2.144;2023-12-20T00:42:14;1.17;;;0.60;;
27365;SDS011;14837;57.148;-2.144;2023-12-20T00:44:41;0.98;;;0.60;;
27365;SDS011;14837;57.148;-2.144;2023-12-20T00:47:07;1.40;;;0.70;;
27365;SDS011;14837;57.148;-2.144;2023-12-20T00:49:34;1.75;;;0.70;;
27365;SDS011;14837;57.148;-2.144;2023-12-20T00:52:01;1.38;;;0.70;;
27365;SDS011;14837;57.148;-2.144;2023-12-20T00:54:27;2.35;;;0.80;;
27365;SDS011;14837;57.148;-2.144;2023-12-20T00:56:54;2.25;;;0.80;;
27365;SDS011;14837;57.148;-2.144;2023-12-20T00:59:21;1.90;;;0.88;;
27365;SDS011;14837;57.148;-2.144;2023-12-20T01:01:47;4.18;;;1.20;;
27365;SDS011;14837;57.148;-2.144;2023-12-20T01:04:14;1.38;;;0.93;;
27365;SDS011;14837;57.148;-2.144;2023-12-20T01:06:41;1.58;;;0.95;;
27365;SDS011;14837;57.148;-2.144;2023-12-20T01:09:07;4.55;;;1.13;;
27365;SDS011;14837;57.148;-2.144;2023-12-20T01:11:34;3.30;;;1.42;;
27365;SDS011;14837;57.148;-2.144;2023-12-20T01:14:00;1.48;;;1.10;;
27365;SDS011;14837;57.148;-2.144;2023-12-20T01:16:27;3.63;;;1.27;;
27365;SDS011;14837;57.148;-2.144;2023-12-20T01:18:53;4.05;;;1.23;;
27365;SDS011;14837;57.148;-2.144;2023-12-20T01:21:20;3.55;;;1.00;;
27365;SDS011;14837;57.148;-2.144;2023-12-20T01:23:47;1.90;;;0.88;;
27365;SDS011;14837;57.148;-2.144;2023-12-20T01:26:14;2.97;;;1.35;;
27365;SDS011;14837;57.148;-2.144;2023-12-20T01:28:41;3.75;;;1.00;;
27365;SDS011;14837;57.148;-2.144;2023-12-20T01:31:08;2.80;;;1.13;;
27365;SDS011;14837;57.148;-2.144;2023-12-20T01:33:34;2.92;;;1.35;;
27365;SDS011;14837;57.148;-2.144;2023-12-20T01:36:01;4.03;;;1.67;;
27365;SDS011;14837;57.148;-2.144;2023-12-20T01:38:27;3.20;;;1.27;;
27365;SDS011;14837;57.148;-2.144;2023-12-20T01:40:54;4.40;;;1.58;;
27365;SDS011;14837;57.148;-2.144;2023-12-20T01:43:21;5.15;;;1.50;;
27365;SDS011;14837;57.148;-2.144;2023-12-20T01:45:50;3.15;;;1.40;;
27365;SDS011;14837;57.148;-2.144;2023-12-20T01:48:16;3.22;;;1.17;;
27365;SDS011;14837;57.148;-2.144;2023-12-20T01:50:43;3.75;;;1.58;;
27365;SDS011;14837;57.148;-2.144;2023-12-20T01:53:10;5.30;;;1.90;;
27365;SDS011;14837;57.148;-2.144;2023-12-20T01:55:40;5.43;;;2.15;;
27365;SDS011;14837;57.148;-2.144;2023-12-20T01:58:08;4.75;;;1.70;;
27365;SDS011;14837;57.148;-2.144;2023-12-20T02:00:35;8.38;;;1.65;;
27365;SDS011;14837;57.148;-2.144;2023-12-20T02:03:02;6.75;;;1.90;;
27365;SDS011;14837;57.148;-2.144;2023-12-20T02:05:32;3.97;;;1.95;;
27365;SDS011;14837;57.148;-2.144;2023-12-20T02:07:59;5.32;;;3.17;;
27365;SDS011;14837;57.148;-2.144;2023-12-20T02:10:25;5.50;;;2.20;;
27365;SDS011;14837;57.148;-2.144;2023-12-20T02:12:52;8.38;;;2.88;;
27365;SDS011;14837;57.148;-2.144;2023-12-20T02:15:19;6.28;;;2.17;;
27365;SDS011;14837;57.148;-2.144;2023-12-20T02:17:46;9.35;;;2.67;;
27365;SDS011;14837;57.148;-2.144;2023-12-20T02:20:13;6.30;;;2.10;;
27365;SDS011;14837;57.148;-2.144;2023-12-20T02:22:40;5.18;;;2.53;;
27365;SDS011;14837;57.148;-2.144;2023-12-20T02:25:07;9.48;;;2.50;;
27365;SDS011;14837;57.148;-2.144;2023-12-20T02:27:34;4.80;;;1.83;;
27365;SDS011;14837;57.148;-2.144;2023-12-20T02:30:01;4.10;;;1.35;;
27365;SDS011;14837;57.148;-2.144;2023-12-20T02:32:27;6.63;;;2.65;;
27365;SDS011;14837;57.148;-2.144;2023-12-20T02:34:54;5.32;;;2.47;;
27365;SDS011;14837;57.148;-2.144;2023-12-20T02:37:21;5.47;;;2.15;;
27365;SDS011;14837;57.148;-2.144;2023-12-20T02:39:48;10.48;;;2.53;;
27365;SDS011;14837;57.148;-2.144;2023-12-20T02:42:14;4.82;;;2.10;;
27365;SDS011;14837;57.148;-2.144;2023-12-20T02:44:41;3.75;;;1.50;;
27365;SDS011;14837;57.148;-2.144;2023-12-20T02:47:07;5.55;;;2.08;;
27365;SDS011;14837;57.148;-2.144;2023-12-20T02:49:34;7.38;;;1.65;;
27365;SDS011;14837;57.148;-2.144;2023-12-20T02:52:00;6.53;;;1.73;;
27365;SDS011;14837;57.148;-2.144;2023-12-20T02:54:27;6.68;;;1.80;;
27365;SDS011;14837;57.148;-2.144;2023-12-20T02:56:53;4.97;;;2.08;;
27365;SDS011;14837;57.148;-2.144;2023-12-20T02:59:20;3.40;;;1.98;;
27365;SDS011;14837;57.148;-2.144;2023-12-20T03:01:46;4.18;;;1.70;;
27365;SDS011;14837;57.148;-2.144;2023-12-20T03:04:13;4.05;;;1.75;;
27365;SDS011;14837;57.148;-2.144;2023-12-20T03:06:40;4.07;;;2.00;;
27365;SDS011;14837;57.148;-2.144;2023-12-20T03:09:06;4.75;;;1.70;;
27365;SDS011;14837;57.148;-2.144;2023-12-20T03:11:33;3.88;;;1.80;;
27365;SDS011;14837;57.148;-2.144;2023-12-20T03:14:00;8.10;;;2.78;;
27365;SDS011;14837;57.148;-2.144;2023-12-20T03:16:26;4.50;;;1.98;;
27365;SDS011;14837;57.148;-2.144;2023-12-20T03:18:53;4.07;;;1.58;;
27365;SDS011;14837;57.148;-2.144;2023-12-20T03:21:20;3.60;;;1.55;;
27365;SDS011;14837;57.148;-2.144;2023-12-20T03:23:46;3.03;;;1.20;;
27365;SDS011;14837;57.148;-2.144;2023-12-20T03:26:13;3.25;;;1.70;;
27365;SDS011;14837;57.148;-2.144;2023-12-20T03:28:40;4.90;;;1.30;;
27365;SDS011;14837;57.148;-2.144;2023-12-20T03:31:07;4.25;;;1.65;;
27365;SDS011;14837;57.148;-2.144;2023-12-20T03:33:33;4.90;;;1.70;;
27365;SDS011;14837;57.148;-2.144;2023-12-20T03:36:00;2.92;;;1.55;;
27365;SDS011;14837;57.148;-2.144;2023-12-20T03:38:26;4.05;;;1.55;;
27365;SDS011;14837;57.148;-2.144;2023-12-20T03:40:53;6.82;;;2.17;;
27365;SDS011;14837;57.148;-2.144;2023-12-20T03:43:19;7.97;;;1.83;;
27365;SDS011;14837;57.148;-2.144;2023-12-20T03:45:48;4.82;;;1.60;;
27365;SDS011;14837;57.148;-2.144;2023-12-20T03:48:14;4.38;;;1.65;;
27365;SDS011;14837;57.148;-2.144;2023-12-20T03:50:42;2.95;;;1.45;;
27365;SDS011;14837;57.148;-2.144;2023-12-20T03:53:09;3.95;;;1.70;;
27365;SDS011;14837;57.148;-2.144;2023-12-20T03:55:36;4.18;;;1.92;;
27365;SDS011;14837;57.148;-2.144;2023-12-20T03:58:03;4.95;;;1.48;;
27365;SDS011;14837;57.148;-2.144;2023-12-20T04:00:30;4.20;;;1.90;;
27365;SDS011;14837;57.148;-2.144;2023-12-20T04:02:56;4.78;;;2.20;;
27365;SDS011;14837;57.148;-2.144;2023-12-20T04:05:23;4.22;;;1.75;;
27365;SDS011;14837;57.148;-2.144;2023-12-20T04:07:50;3.15;;;1.60;;
27365;SDS011;14837;57.148;-2.144;2023-12-20T04:10:17;3.33;;;1.83;;
27365;SDS011;14837;57.148;-2.144;2023-12-20T04:12:43;4.90;;;2.50;;
27365;SDS011;14837;57.148;-2.144;2023-12-20T04:15:10;4.43;;;1.98;;
27365;SDS011;14837;57.148;-2.144;2023-12-20T04:17:38;7.80;;;2.17;;
27365;SDS011;14837;57.148;-2.144;2023-12-20T04:20:05;4.05;;;1.95;;
27365;SDS011;14837;57.148;-2.144;2023-12-20T04:22:32;9.52;;;2.70;;
27365;SDS011;14837;57.148;-2.144;2023-12-20T04:24:58;4.13;;;1.90;;
27365;SDS011;14837;57.148;-2.144;2023-12-20T04:27:25;3.70;;;1.55;;
27365;SDS011;14837;57.148;-2.144;2023-12-20T04:29:51;3.67;;;1.45;;
27365;SDS011;14837;57.148;-2.144;2023-12-20T04:32:18;4.32;;;1.67;;
27365;SDS011;14837;57.148;-2.144;2023-12-20T04:34:44;5.97;;;2.67;;
27365;SDS011;14837;57.148;-2.144;2023-12-20T04:37:11;3.88;;;1.50;;
27365;SDS011;14837;57.148;-2.144;2023-12-20T04:39:38;5.72;;;2.47;;
27365;SDS011;14837;57.148;-2.144;2023-12-20T04:42:07;7.65;;;2.33;;
27365;SDS011;14837;57.148;-2.144;2023-12-20T04:44:33;5.18;;;2.58;;
27365;SDS011;14837;57.148;-2.144;2023-12-20T04:47:00;4.05;;;1.80;;
27365;SDS011;14837;57.148;-2.144;2023-12-20T04:49:27;5.18;;;1.75;;
27365;SDS011;14837;57.148;-2.144;2023-12-20T04:51:54;5.55;;;2.00;;
27365;SDS011;14837;57.148;-2.144;2023-12-20T04:54:20;6.78;;;2.08;;
27365;SDS011;14837;57.148;-2.144;2023-12-20T04:56:47;5.30;;;2.53;;
27365;SDS011;14837;57.148;-2.144;2023-12-20T04:59:13;4.60;;;1.77;;
27365;SDS011;14837;57.148;-2.144;2023-12-20T05:01:40;5.30;;;2.35;;
27365;SDS011;14837;57.148;-2.144;2023-12-20T05:04:07;8.02;;;3.08;;
27365;SDS011;14837;57.148;-2.144;2023-12-20T05:06:34;6.15;;;3.20;;
27365;SDS011;14837;57.148;-2.144;2023-12-20T05:09:00;6.20;;;2.40;;
27365;SDS011;14837;57.148;-2.144;2023-12-20T05:11:27;4.95;;;1.90;;
27365;SDS011;14837;57.148;-2.144;2023-12-20T05:13:53;8.80;;;3.15;;
27365;SDS011;14837;57.148;-2.144;2023-12-20T05:16:20;9.27;;;2.95;;
27365;SDS011;14837;57.148;-2.144;2023-12-20T05:18:47;6.40;;;2.95;;
27365;SDS011;14837;57.148;-2.144;2023-12-20T05:21:14;7.18;;;2.30;;
27365;SDS011;14837;57.148;-2.144;2023-12-20T05:23:41;7.18;;;3.10;;
27365;SDS011;14837;57.148;-2.144;2023-12-20T05:26:07;12.75;;;3.10;;
27365;SDS011;14837;57.148;-2.144;2023-12-20T05:28:34;8.00;;;2.33;;
27365;SDS011;14837;57.148;-2.144;2023-12-20T05:31:00;8.60;;;3.47;;
27365;SDS011;14837;57.148;-2.144;2023-12-20T05:33:27;7.07;;;2.75;;
27365;SDS011;14837;57.148;-2.144;2023-12-20T05:35:54;10.23;;;2.72;;
27365;SDS011;14837;57.148;-2.144;2023-12-20T05:38:21;9.43;;;3.67;;
27365;SDS011;14837;57.148;-2.144;2023-12-20T05:40:47;5.72;;;2.70;;
27365;SDS011;14837;57.148;-2.144;2023-12-20T05:43:14;8.68;;;2.92;;
27365;SDS011;14837;57.148;-2.144;2023-12-20T05:45:40;7.75;;;2.72;;
27365;SDS011;14837;57.148;-2.144;2023-12-20T05:48:07;6.53;;;2.25;;
27365;SDS011;14837;57.148;-2.144;2023-12-20T05:50:33;8.05;;;2.40;;
27365;SDS011;14837;57.148;-2.144;2023-12-20T05:53:01;6.85;;;2.80;;
27365;SDS011;14837;57.148;-2.144;2023-12-20T05:55:27;5.35;;;2.33;;
27365;SDS011;14837;57.148;-2.144;2023-12-20T05:57:54;8.57;;;4.30;;
27365;SDS011;14837;57.148;-2.144;2023-12-20T06:00:20;7.57;;;2.30;;
27365;SDS011;14837;57.148;-2.144;2023-12-20T06:02:47;7.28;;;3.15;;
27365;SDS011;14837;57.148;-2.144;2023-12-20T06:05:13;6.57;;;2.53;;
27365;SDS011;14837;57.148;-2.144;2023-12-20T06:07:40;10.35;;;2.80;;
27365;SDS011;14837;57.148;-2.144;2023-12-20T06:10:07;7.38;;;2.35;;
27365;SDS011;14837;57.148;-2.144;2023-12-20T06:12:33;5.25;;;2.25;;
27365;SDS011;14837;57.148;-2.144;2023-12-20T06:15:02;7.65;;;2.65;;
27365;SDS011;14837;57.148;-2.144;2023-12-20T06:17:29;5.07;;;2.30;;
27365;SDS011;14837;57.148;-2.144;2023-12-20T06:19:57;10.23;;;3.05;;
27365;SDS011;14837;57.148;-2.144;2023-12-20T06:22:24;6.63;;;2.25;;
27365;SDS011;14837;57.148;-2.144;2023-12-20T06:24:51;8.75;;;2.72;;
27365;SDS011;14837;57.148;-2.144;2023-12-20T06:27:17;8.98;;;2.60;;
27365;SDS011;14837;57.148;-2.144;2023-12-20T06:29:44;8.80;;;2.80;;
27365;SDS011;14837;57.148;-2.144;2023-12-20T06:32:11;6.43;;;2.50;;
27365;SDS011;14837;57.148;-2.144;2023-12-20T06:34:37;5.80;;;2.53;;
27365;SDS011;14837;57.148;-2.144;2023-12-20T06:37:04;6.00;;;2.60;;
27365;SDS011;14837;57.148;-2.144;2023-12-20T06:39:31;8.15;;;2.30;;
27365;SDS011;14837;57.148;-2.144;2023-12-20T06:42:00;8.13;;;3.63;;
27365;SDS011;14837;57.148;-2.144;2023-12-20T06:44:26;8.52;;;2.40;;
27365;SDS011;14837;57.148;-2.144;2023-12-20T06:46:53;6.72;;;3.15;;
27365;SDS011;14837;57.148;-2.144;2023-12-20T06:49:20;6.47;;;2.40;;
27365;SDS011;14837;57.148;-2.144;2023-12-20T06:51:46;5.60;;;2.38;;
27365;SDS011;14837;57.148;-2.144;2023-12-20T06:54:13;6.47;;;3.05;;
27365;SDS011;14837;57.148;-2.144;2023-12-20T06:56:39;4.95;;;2.60;;
27365;SDS011;14837;57.148;-2.144;2023-12-20T06:59:07;8.15;;;2.15;;
27365;SDS011;14837;57.148;-2.144;2023-12-20T07:01:33;6.80;;;2.63;;
27365;SDS011;14837;57.148;-2.144;2023-12-20T07:04:00;5.40;;;2.65;;
27365;SDS011;14837;57.148;-2.144;2023-12-20T07:06:27;3.85;;;1.90;;
27365;SDS011;14837;57.148;-2.144;2023-12-20T07:08:53;3.88;;;1.65;;
27365;SDS011;14837;57.148;-2.144;2023-12-20T07:11:20;5.22;;;2.22;;
27365;SDS011;14837;57.148;-2.144;2023-12-20T07:13:46;4.85;;;2.38;;
27365;SDS011;14837;57.148;-2.144;2023-12-20T07:16:13;6.07;;;3.08;;
27365;SDS011;14837;57.148;-2.144;2023-12-20T07:18:39;5.88;;;2.25;;
27365;SDS011;14837;57.148;-2.144;2023-12-20T07:21:06;4.63;;;2.33;;
27365;SDS011;14837;57.148;-2.144;2023-12-20T07:23:34;5.72;;;2.47;;
27365;SDS011;14837;57.148;-2.144;2023-12-20T07:26:00;5.63;;;2.15;;
27365;SDS011;14837;57.148;-2.144;2023-12-20T07:28:27;4.30;;;2.10;;
27365;SDS011;14837;57.148;-2.144;2023-12-20T07:30:53;8.38;;;2.38;;
27365;SDS011;14837;57.148;-2.144;2023-12-20T07:33:20;6.05;;;1.77;;
27365;SDS011;14837;57.148;-2.144;2023-12-20T07:35:48;5.57;;;2.33;;
27365;SDS011;14837;57.148;-2.144;2023-12-20T07:38:15;6.65;;;2.15;;
27365;SDS011;14837;57.148;-2.144;2023-12-20T07:40:41;7.03;;;2.45;;
27365;SDS011;14837;57.148;-2.144;2023-12-20T07:43:08;8.52;;;2.35;;
27365;SDS011;14837;57.148;-2.144;2023-12-20T07:45:34;5.28;;;2.15;;
27365;SDS011;14837;57.148;-2.144;2023-12-20T07:48:01;3.97;;;1.77;;
27365;SDS011;14837;57.148;-2.144;2023-12-20T07:50:28;6.38;;;1.63;;
27365;SDS011;14837;57.148;-2.144;2023-12-20T07:52:55;7.43;;;1.90;;
27365;SDS011;14837;57.148;-2.144;2023-12-20T07:55:21;4.13;;;2.10;;
27365;SDS011;14837;57.148;-2.144;2023-12-20T07:57:49;6.35;;;2.35;;
27365;SDS011;14837;57.148;-2.144;2023-12-20T08:00:15;7.82;;;1.67;;
27365;SDS011;14837;57.148;-2.144;2023-12-20T08:02:42;5.00;;;1.83;;
27365;SDS011;14837;57.148;-2.144;2023-12-20T08:05:08;5.05;;;2.28;;
27365;SDS011;14837;57.148;-2.144;2023-12-20T08:07:35;3.88;;;1.70;;
27365;SDS011;14837;57.148;-2.144;2023-12-20T08:10:02;4.15;;;1.95;;
27365;SDS011;14837;57.148;-2.144;2023-12-20T08:12:29;2.58;;;1.65;;
27365;SDS011;14837;57.148;-2.144;2023-12-20T08:14:55;5.55;;;1.95;;
27365;SDS011;14837;57.148;-2.144;2023-12-20T08:17:23;7.53;;;2.20;;
27365;SDS011;14837;57.148;-2.144;2023-12-20T08:19:50;4.38;;;2.40;;
27365;SDS011;14837;57.148;-2.144;2023-12-20T08:22:17;5.78;;;1.65;;
27365;SDS011;14837;57.148;-2.144;2023-12-20T08:24:44;5.00;;;1.77;;
27365;SDS011;14837;57.148;-2.144;2023-12-20T08:27:10;5.00;;;2.20;;
27365;SDS011;14837;57.148;-2.144;2023-12-20T08:29:37;8.25;;;1.85;;
27365;SDS011;14837;57.148;-2.144;2023-12-20T08:32:03;4.38;;;1.75;;
27365;SDS011;14837;57.148;-2.144;2023-12-20T08:34:30;5.97;;;1.67;;
27365;SDS011;14837;57.148;-2.144;2023-12-20T08:36:58;4.28;;;1.50;;
27365;SDS011;14837;57.148;-2.144;2023-12-20T08:39:24;2.65;;;1.67;;
27365;SDS011;14837;57.148;-2.144;2023-12-20T08:41:51;4.18;;;2.17;;
27365;SDS011;14837;57.148;-2.144;2023-12-20T08:44:17;3.65;;;1.38;;
27365;SDS011;14837;57.148;-2.144;2023-12-20T08:46:44;3.15;;;1.20;;
27365;SDS011;14837;57.148;-2.144;2023-12-20T08:49:10;5.30;;;1.50;;
27365;SDS011;14837;57.148;-2.144;2023-12-20T08:51:37;4.35;;;1.13;;
27365;SDS011;14837;57.148;-2.144;2023-12-20T08:54:07;3.53;;;1.58;;
27365;SDS011;14837;57.148;-2.144;2023-12-20T08:56:34;1.50;;;1.00;;
27365;SDS011;14837;57.148;-2.144;2023-12-20T08:59:01;2.80;;;1.73;;
27365;SDS011;14837;57.148;-2.144;2023-12-20T09:01:27;3.40;;;1.55;;
27365;SDS011;14837;57.148;-2.144;2023-12-20T09:03:54;2.13;;;1.35;;
27365;SDS011;14837;57.148;-2.144;2023-12-20T09:06:20;6.43;;;1.85;;
27365;SDS011;14837;57.148;-2.144;2023-12-20T09:08:47;2.05;;;1.00;;
27365;SDS011;14837;57.148;-2.144;2023-12-20T09:11:13;2.00;;;1.60;;
27365;SDS011;14837;57.148;-2.144;2023-12-20T09:13:40;5.25;;;1.63;;
27365;SDS011;14837;57.148;-2.144;2023-12-20T09:16:07;2.33;;;1.13;;
27365;SDS011;14837;57.148;-2.144;2023-12-20T09:18:33;3.50;;;1.35;;
27365;SDS011;14837;57.148;-2.144;2023-12-20T09:21:00;2.70;;;1.23;;
27365;SDS011;14837;57.148;-2.144;2023-12-20T09:23:27;1.70;;;0.85;;
27365;SDS011;14837;57.148;-2.144;2023-12-20T09:25:53;2.17;;;1.42;;
27365;SDS011;14837;57.148;-2.144;2023-12-20T09:28:23;2.33;;;1.15;;
27365;SDS011;14837;57.148;-2.144;2023-12-20T09:30:49;3.97;;;1.40;;
27365;SDS011;14837;57.148;-2.144;2023-12-20T09:33:16;1.70;;;1.10;;
27365;SDS011;14837;57.148;-2.144;2023-12-20T09:35:43;2.28;;;1.30;;
27365;SDS011;14837;57.148;-2.144;2023-12-20T09:38:10;3.95;;;1.05;;
27365;SDS011;14837;57.148;-2.144;2023-12-20T09:40:38;3.92;;;1.63;;
27365;SDS011;14837;57.148;-2.144;2023-12-20T09:43:11;2.70;;;1.10;;
27365;SDS011;14837;57.148;-2.144;2023-12-20T09:45:37;3.78;;;1.35;;
27365;SDS011;14837;57.148;-2.144;2023-12-20T09:48:05;1.52;;;1.20;;
27365;SDS011;14837;57.148;-2.144;2023-12-20T09:50:32;4.53;;;1.35;;
27365;SDS011;14837;57.148;-2.144;2023-12-20T09:53:00;3.47;;;1.52;;
27365;SDS011;14837;57.148;-2.144;2023-12-20T09:55:27;2.45;;;1.30;;
27365;SDS011;14837;57.148;-2.144;2023-12-20T09:57:54;2.92;;;1.10;;
27365;SDS011;14837;57.148;-2.144;2023-12-20T10:00:21;2.45;;;1.55;;
27365;SDS011;14837;57.148;-2.144;2023-12-20T10:02:56;2.78;;;1.38;;
27365;SDS011;14837;57.148;-2.144;2023-12-20T10:05:32;3.15;;;1.33;;
27365;SDS011;14837;57.148;-2.144;2023-12-20T10:07:59;3.08;;;1.35;;
27365;SDS011;14837;57.148;-2.144;2023-12-20T10:10:28;4.55;;;1.55;;
27365;SDS011;14837;57.148;-2.144;2023-12-20T10:13:10;3.42;;;1.33;;
27365;SDS011;14837;57.148;-2.144;2023-12-20T10:15:38;2.08;;;1.30;;
27365;SDS011;14837;57.148;-2.144;2023-12-20T10:18:05;4.50;;;1.30;;
27365;SDS011;14837;57.148;-2.144;2023-12-20T10:20:32;2.50;;;1.48;;
27365;SDS011;14837;57.148;-2.144;2023-12-20T10:23:00;1.67;;;1.02;;
27365;SDS011;14837;57.148;-2.144;2023-12-20T10:25:27;4.60;;;1.67;;
27365;SDS011;14837;57.148;-2.144;2023-12-20T10:28:13;2.83;;;1.13;;
27365;SDS011;14837;57.148;-2.144;2023-12-20T10:30:40;2.40;;;1.17;;
27365;SDS011;14837;57.148;-2.144;2023-12-20T10:33:07;3.08;;;1.35;;
27365;SDS011;14837;57.148;-2.144;2023-12-20T10:35:37;2.83;;;1.65;;
27365;SDS011;14837;57.148;-2.144;2023-12-20T10:38:07;3.00;;;1.40;;
27365;SDS011;14837;57.148;-2.144;2023-12-20T10:40:34;1.85;;;1.40;;
27365;SDS011;14837;57.148;-2.144;2023-12-20T10:43:01;3.08;;;1.52;;
27365;SDS011;14837;57.148;-2.144;2023-12-20T10:45:28;2.17;;;1.27;;
27365;SDS011;14837;57.148;-2.144;2023-12-20T10:47:55;2.40;;;1.02;;
27365;SDS011;14837;57.148;-2.144;2023-12-20T10:50:22;4.63;;;1.63;;
27365;SDS011;14837;57.148;-2.144;2023-12-20T10:52:49;2.40;;;1.10;;
27365;SDS011;14837;57.148;-2.144;2023-12-20T10:55:22;2.55;;;1.20;;
27365;SDS011;14837;57.148;-2.144;2023-12-20T10:57:49;3.78;;;1.40;;
27365;SDS011;14837;57.148;-2.144;2023-12-20T11:00:17;2.60;;;1.33;;
27365;SDS011;14837;57.148;-2.144;2023-12-20T11:02:44;3.08;;;1.17;;
27365;SDS011;14837;57.148;-2.144;2023-12-20T11:07:48;3.03;;;1.40;;
27365;SDS011;14837;57.148;-2.144;2023-12-20T11:10:22;3.13;;;1.42;;
27365;SDS011;14837;57.148;-2.144;2023-12-20T11:12:53;1.33;;;1.08;;
27365;SDS011;14837;57.148;-2.144;2023-12-20T11:15:21;2.28;;;1.20;;
27365;SDS011;14837;57.148;-2.144;2023-12-20T11:17:54;2.60;;;1.35;;
27365;SDS011;14837;57.148;-2.144;2023-12-20T11:20:22;2.15;;;1.10;;
27365;SDS011;14837;57.148;-2.144;2023-12-20T11:22:52;4.07;;;1.10;;
27365;SDS011;14837;57.148;-2.144;2023-12-20T11:25:19;2.38;;;1.10;;
27365;SDS011;14837;57.148;-2.144;2023-12-20T11:28:07;1.17;;;0.95;;
27365;SDS011;14837;57.148;-2.144;2023-12-20T11:33:08;3.95;;;1.65;;
27365;SDS011;14837;57.148;-2.144;2023-12-20T11:35:35;2.10;;;1.10;;
27365;SDS011;14837;57.148;-2.144;2023-12-20T11:38:03;2.80;;;1.23;;
27365;SDS011;14837;57.148;-2.144;2023-12-20T11:40:31;2.28;;;0.98;;
27365;SDS011;14837;57.148;-2.144;2023-12-20T11:43:00;2.92;;;0.95;;
27365;SDS011;14837;57.148;-2.144;2023-12-20T11:45:26;2.88;;;1.30;;
27365;SDS011;14837;57.148;-2.144;2023-12-20T11:47:56;2.40;;;1.20;;
27365;SDS011;14837;57.148;-2.144;2023-12-20T11:50:24;2.95;;;1.30;;
27365;SDS011;14837;57.148;-2.144;2023-12-20T11:52:51;2.05;;;1.27;;
27365;SDS011;14837;57.148;-2.144;2023-12-20T11:55:18;2.67;;;0.90;;
27365;SDS011;14837;57.148;-2.144;2023-12-20T11:57:45;1.55;;;0.90;;
27365;SDS011;14837;57.148;-2.144;2023-12-20T12:00:13;3.33;;;1.55;;
27365;SDS011;14837;57.148;-2.144;2023-12-20T12:02:39;1.35;;;1.00;;
27365;SDS011;14837;57.148;-2.144;2023-12-20T12:05:06;2.42;;;1.25;;
27365;SDS011;14837;57.148;-2.144;2023-12-20T12:07:34;3.90;;;1.70;;
27365;SDS011;14837;57.148;-2.144;2023-12-20T12:10:01;2.55;;;1.05;;
27365;SDS011;14837;57.148;-2.144;2023-12-20T12:12:27;3.28;;;1.20;;
27365;SDS011;14837;57.148;-2.144;2023-12-20T12:14:55;3.00;;;0.98;;
27365;SDS011;14837;57.148;-2.144;2023-12-20T12:17:24;2.85;;;1.40;;
27365;SDS011;14837;57.148;-2.144;2023-12-20T12:19:51;2.05;;;1.15;;
27365;SDS011;14837;57.148;-2.144;2023-12-20T12:22:27;4.00;;;1.58;;
27365;SDS011;14837;57.148;-2.144;2023-12-20T12:24:54;1.77;;;1.17;;
27365;SDS011;14837;57.148;-2.144;2023-12-20T12:27:25;1.40;;;1.08;;
27365;SDS011;14837;57.148;-2.144;2023-12-20T12:30:01;1.38;;;0.85;;
27365;SDS011;14837;57.148;-2.144;2023-12-20T12:32:29;2.35;;;1.40;;
27365;SDS011;14837;57.148;-2.144;2023-12-20T12:34:56;3.45;;;1.50;;
27365;SDS011;14837;57.148;-2.144;2023-12-20T12:37:22;1.80;;;1.27;;
27365;SDS011;14837;57.148;-2.144;2023-12-20T12:39:52;1.70;;;1.30;;
27365;SDS011;14837;57.148;-2.144;2023-12-20T12:42:19;1.38;;;1.25;;
27365;SDS011;14837;57.148;-2.144;2023-12-20T12:44:47;3.63;;;1.02;;
27365;SDS011;14837;57.148;-2.144;2023-12-20T12:47:13;2.47;;;1.15;;
27365;SDS011;14837;57.148;-2.144;2023-12-20T12:49:40;2.65;;;1.20;;
27365;SDS011;14837;57.148;-2.144;2023-12-20T12:52:07;1.80;;;1.00;;
27365;SDS011;14837;57.148;-2.144;2023-12-20T12:54:33;1.80;;;1.48;;
27365;SDS011;14837;57.148;-2.144;2023-12-20T12:57:00;2.30;;;1.20;;
27365;SDS011;14837;57.148;-2.144;2023-12-20T12:59:26;3.70;;;1.08;;
27365;SDS011;14837;57.148;-2.144;2023-12-20T13:01:53;2.70;;;1.13;;
27365;SDS011;14837;57.148;-2.144;2023-12-20T13:04:20;0.95;;;0.77;;
27365;SDS011;14837;57.148;-2.144;2023-12-20T13:06:46;3.05;;;1.08;;
27365;SDS011;14837;57.148;-2.144;2023-12-20T13:09:13;2.03;;;1.00;;
27365;SDS011;14837;57.148;-2.144;2023-12-20T13:11:41;3.08;;;1.02;;
27365;SDS011;14837;57.148;-2.144;2023-12-20T13:14:07;1.35;;;1.25;;
27365;SDS011;14837;57.148;-2.144;2023-12-20T13:16:37;1.75;;;0.63;;
27365;SDS011;14837;57.148;-2.144;2023-12-20T13:19:03;1.13;;;0.93;;
27365;SDS011;14837;57.148;-2.144;2023-12-20T13:21:30;0.50;;;0.50;;
27365;SDS011;14837;57.148;-2.144;2023-12-20T13:23:57;1.92;;;0.70;;
27365;SDS011;14837;57.148;-2.144;2023-12-20T13:26:24;0.77;;;0.57;;
27365;SDS011;14837;57.148;-2.144;2023-12-20T13:28:50;2.35;;;0.80;;
27365;SDS011;14837;57.148;-2.144;2023-12-20T13:31:17;1.20;;;0.60;;
27365;SDS011;14837;57.148;-2.144;2023-12-20T13:33:44;1.55;;;0.73;;
27365;SDS011;14837;57.148;-2.144;2023-12-20T13:36:10;0.60;;;0.47;;
27365;SDS011;14837;57.148;-2.144;2023-12-20T13:38:37;0.57;;;0.45;;
27365;SDS011;14837;57.148;-2.144;2023-12-20T13:41:03;0.77;;;0.50;;
27365;SDS011;14837;57.148;-2.144;2023-12-20T13:43:33;0.50;;;0.40;;
27365;SDS011;14837;57.148;-2.144;2023-12-20T13:46:01;0.82;;;0.50;;
27365;SDS011;14837;57.148;-2.144;2023-12-20T13:48:27;0.70;;;0.60;;
27365;SDS011;14837;57.148;-2.144;2023-12-20T13:50:54;1.02;;;0.50;;
27365;SDS011;14837;57.148;-2.144;2023-12-20T13:53:21;0.35;;;0.30;;
27365;SDS011;14837;57.148;-2.144;2023-12-20T13:55:47;0.77;;;0.30;;
27365;SDS011;14837;57.148;-2.144;2023-12-20T13:58:14;0.35;;;0.35;;
27365;SDS011;14837;57.148;-2.144;2023-12-20T14:00:41;0.75;;;0.47;;
27365;SDS011;14837;57.148;-2.144;2023-12-20T14:03:07;0.40;;;0.40;;
27365;SDS011;14837;57.148;-2.144;2023-12-20T14:05:35;0.88;;;0.88;;
27365;SDS011;14837;57.148;-2.144;2023-12-20T14:08:01;0.40;;;0.40;;
27365;SDS011;14837;57.148;-2.144;2023-12-20T14:10:28;0.60;;;0.50;;
27365;SDS011;14837;57.148;-2.144;2023-12-20T14:12:55;1.20;;;0.68;;
27365;SDS011;14837;57.148;-2.144;2023-12-20T14:15:22;0.60;;;0.50;;
27365;SDS011;14837;57.148;-2.144;2023-12-20T14:17:52;0.50;;;0.50;;
27365;SDS011;14837;57.148;-2.144;2023-12-20T14:20:19;0.70;;;0.50;;
27365;SDS011;14837;57.148;-2.144;2023-12-20T14:22:45;0.45;;;0.45;;
27365;SDS011;14837;57.148;-2.144;2023-12-20T14:25:13;0.55;;;0.47;;
27365;SDS011;14837;57.148;-2.144;2023-12-20T14:27:40;2.22;;;0.70;;
27365;SDS011;14837;57.148;-2.144;2023-12-20T14:30:07;0.50;;;0.50;;
27365;SDS011;14837;57.148;-2.144;2023-12-20T14:32:36;0.50;;;0.50;;
27365;SDS011;14837;57.148;-2.144;2023-12-20T14:35:06;0.73;;;0.70;;
27365;SDS011;14837;57.148;-2.144;2023-12-20T14:37:33;0.55;;;0.45;;